createdAt,value
2023-10-10T00:00:24.981Z,102137.97
2023-10-10T00:02:52.590Z,102116.19
2023-10-10T00:05:20.287Z,102143.44
2023-10-10T00:07:47.906Z,102147.09
2023-10-10T00:10:14.589Z,102149.22
2023-10-10T00:12:41.474Z,102150.06
2023-10-10T00:15:14.782Z,102137.31
2023-10-10T00:17:42.405Z,102133.91
2023-10-10T00:20:23.375Z,102140.25
2023-10-10T00:22:51.052Z,102138.84
2023-10-10T00:25:19.888Z,102138.72
2023-10-10T00:27:48.204Z,102134.19
2023-10-10T00:30:15.086Z,102111.97
2023-10-10T00:32:44.056Z,102104.00
2023-10-10T00:35:13.309Z,102104.69
2023-10-10T00:37:39.776Z,102113.06
2023-10-10T00:40:11.316Z,102103.72
2023-10-10T00:42:38.505Z,102093.63
2023-10-10T00:45:15.270Z,102110.69
2023-10-10T00:47:48.682Z,102114.09
2023-10-10T00:50:17.750Z,102129.31
2023-10-10T00:52:49.774Z,102120.38
2023-10-10T00:55:22.992Z,102122.88
2023-10-10T00:57:53.911Z,102111.41
2023-10-10T01:00:21.365Z,102115.72
2023-10-10T01:02:51.027Z,102103.09
2023-10-10T01:05:24.547Z,102101.56
2023-10-10T01:07:52.494Z,102098.09
2023-10-10T01:10:19.104Z,102097.94
2023-10-10T01:12:47.770Z,102098.78
2023-10-10T01:15:15.037Z,102087.56
2023-10-10T01:17:44.130Z,102103.78
2023-10-10T01:20:35.372Z,102091.47
2023-10-10T01:23:03.811Z,102092.44
2023-10-10T01:25:36.559Z,102085.75
2023-10-10T01:28:17.265Z,102081.41
2023-10-10T01:30:56.590Z,102082.41
2023-10-10T01:33:26.329Z,102081.72
2023-10-10T01:35:56.967Z,102074.16
2023-10-10T01:39:19.960Z,102075.31
2023-10-10T01:41:49.722Z,102069.91
2023-10-10T01:44:19.484Z,102076.75
2023-10-10T01:46:46.626Z,102063.50
2023-10-10T01:49:21.597Z,102063.88
2023-10-10T01:51:56.257Z,102063.50
2023-10-10T01:54:35.806Z,102057.78
2023-10-10T01:57:05.266Z,102064.75
2023-10-10T01:59:36.732Z,102066.72
2023-10-10T02:02:10.155Z,102059.75
2023-10-10T02:04:37.504Z,102062.41
2023-10-10T02:07:14.766Z,102053.88
2023-10-10T02:09:41.530Z,102060.03
2023-10-10T02:12:17.067Z,102056.69
2023-10-10T02:14:46.683Z,102064.00
2023-10-10T02:17:24.292Z,102059.66
2023-10-10T02:19:55.590Z,102053.91
2023-10-10T02:22:34.145Z,102053.06
2023-10-10T02:25:32.753Z,102050.56
2023-10-10T02:28:04.319Z,102040.38
2023-10-10T02:30:37.486Z,102046.22
2023-10-10T02:33:24.631Z,102047.22
2023-10-10T02:35:55.583Z,102046.53
2023-10-10T02:38:41.748Z,102042.34
2023-10-10T02:41:35.236Z,102037.31
2023-10-10T02:44:11.164Z,102027.25
2023-10-10T02:46:39.541Z,102029.78
2023-10-10T02:49:24.106Z,102022.94
2023-10-10T02:51:57.772Z,102026.44
2023-10-10T02:54:35.769Z,102035.41
2023-10-10T02:57:25.225Z,102023.22
2023-10-10T02:59:53.509Z,102030.34
2023-10-10T03:02:20.959Z,102022.13
2023-10-10T03:05:06.982Z,102018.19
2023-10-10T03:07:36.452Z,102014.16
2023-10-10T03:10:16.073Z,102013.03
2023-10-10T03:12:43.252Z,101974.03
2023-10-10T03:15:15.960Z,102013.72
2023-10-10T03:17:49.466Z,102007.88
2023-10-10T03:20:25.679Z,102009.38
2023-10-10T03:23:11.901Z,102003.06
2023-10-10T03:25:47.657Z,102006.41
2023-10-10T03:28:31.775Z,102002.91
2023-10-10T03:31:24.725Z,102005.44
2023-10-10T03:34:10.474Z,102000.56
2023-10-10T03:36:46.487Z,102003.75
2023-10-10T03:39:18.409Z,101962.56
2023-10-10T03:42:03.574Z,102002.09
2023-10-10T03:44:48.388Z,101964.94
2023-10-10T03:47:33.404Z,101992.16
2023-10-10T03:50:20.360Z,101992.16
2023-10-10T03:53:05.627Z,101971.47
2023-10-10T03:56:08.218Z,101994.25
2023-10-10T03:58:53.136Z,101988.81
2023-10-10T04:01:37.855Z,101955.94
2023-10-10T04:04:23.384Z,101987.13
2023-10-10T04:07:08.476Z,101977.44
2023-10-10T04:09:53.385Z,101975.09
2023-10-10T04:12:38.336Z,101966.44
2023-10-10T04:15:23.702Z,101971.31
2023-10-10T04:18:08.491Z,101977.59
2023-10-10T04:20:53.243Z,101966.44
2023-10-10T04:23:38.574Z,101961.94
2023-10-10T04:26:23.912Z,101956.78
2023-10-10T04:29:09.077Z,101955.25
2023-10-10T04:31:54.341Z,101956.09
2023-10-10T04:34:39.551Z,101954.41
2023-10-10T04:37:24.366Z,101952.84
2023-10-10T04:40:09.127Z,101950.19
2023-10-10T04:42:53.996Z,101950.19
2023-10-10T04:45:38.971Z,101937.50
2023-10-10T04:48:24.483Z,101937.06
2023-10-10T04:51:10.437Z,101935.38
2023-10-10T04:53:55.862Z,101926.88
2023-10-10T04:56:40.762Z,101917.81
2023-10-10T04:59:45.417Z,101922.81
2023-10-10T05:02:30.766Z,101919.34
2023-10-10T05:05:15.907Z,101908.97
2023-10-10T05:08:00.906Z,101912.50
2023-10-10T05:10:46.019Z,101915.28
2023-10-10T05:13:30.925Z,101913.84
2023-10-10T05:16:21.853Z,101914.09
2023-10-10T05:19:06.843Z,101920.34
2023-10-10T05:21:51.692Z,101916.41
2023-10-10T05:24:22.103Z,101915.72
2023-10-10T05:26:48.723Z,101905.81
2023-10-10T05:29:15.880Z,101901.41
2023-10-10T05:31:45.840Z,101901.28
2023-10-10T05:34:16.288Z,101895.34
2023-10-10T05:36:43.599Z,101898.22
2023-10-10T05:39:18.774Z,101893.72
2023-10-10T05:41:45.857Z,101893.25
2023-10-10T05:44:14.715Z,101898.41
2023-10-10T05:46:41.695Z,101899.41
2023-10-10T05:49:08.202Z,101898.28
2023-10-10T05:51:34.658Z,101895.81
2023-10-10T05:54:01.087Z,101890.47
2023-10-10T05:56:27.689Z,101886.81
2023-10-10T05:58:55.141Z,101890.16
2023-10-10T06:01:21.868Z,101884.84
2023-10-10T06:03:48.469Z,101890.16
2023-10-10T06:06:16.919Z,101885.16
2023-10-10T06:08:44.101Z,101894.66
2023-10-10T06:11:12.707Z,101885.97
2023-10-10T06:13:41.876Z,101885.63
2023-10-10T06:16:18.850Z,101888.13
2023-10-10T06:18:47.505Z,101890.78
2023-10-10T06:21:16.085Z,101883.63
2023-10-10T06:23:45.428Z,101876.97
2023-10-10T06:26:13.852Z,101880.34
2023-10-10T06:28:46.852Z,101881.16
2023-10-10T06:31:21.904Z,101880.16
2023-10-10T06:33:52.160Z,101883.47
2023-10-10T06:36:33.578Z,101889.19
2023-10-10T06:39:02.792Z,101891.81
2023-10-10T06:41:36.528Z,101887.28
2023-10-10T06:44:05.683Z,101900.22
2023-10-10T06:46:38.319Z,101893.59
2023-10-10T06:49:07.947Z,101897.50
2023-10-10T06:51:40.946Z,101898.25
2023-10-10T06:54:09.901Z,101903.31
2023-10-10T06:56:46.846Z,101902.16
2023-10-10T06:59:21.775Z,101881.97
2023-10-10T07:01:49.609Z,101901.09
2023-10-10T07:04:17.709Z,101895.25
2023-10-10T07:06:46.081Z,101892.34
2023-10-10T07:09:15.814Z,101899.06
2023-10-10T07:11:43.189Z,101887.72
2023-10-10T07:14:12.060Z,101858.56
2023-10-10T07:16:44.337Z,101887.03
2023-10-10T07:19:21.079Z,101886.34
2023-10-10T07:21:49.066Z,101865.69
2023-10-10T07:24:16.766Z,101861.59
2023-10-10T07:26:45.002Z,101868.03
2023-10-10T07:29:27.331Z,101874.19
2023-10-10T07:32:08.483Z,101880.22
2023-10-10T07:34:40.344Z,101884.69
2023-10-10T07:37:09.989Z,101881.88
2023-10-10T07:39:37.872Z,101880.88
2023-10-10T07:42:10.395Z,101879.88
2023-10-10T07:44:37.576Z,101883.94
2023-10-10T07:47:11.082Z,101871.44
2023-10-10T07:49:41.303Z,101853.22
2023-10-10T07:52:17.137Z,101873.47
2023-10-10T07:54:47.083Z,101872.63
2023-10-10T07:57:19.920Z,101858.00
2023-10-10T07:59:47.655Z,101870.44
2023-10-10T08:02:27.949Z,101874.47
2023-10-10T08:04:55.470Z,101866.16
2023-10-10T08:07:24.899Z,101871.00
2023-10-10T08:10:11.886Z,101880.63
2023-10-10T08:12:39.373Z,101885.78
2023-10-10T08:15:20.542Z,101874.28
2023-10-10T08:17:56.774Z,101882.34
2023-10-10T08:20:44.158Z,101877.69
2023-10-10T08:23:10.848Z,101887.56
2023-10-10T08:25:39.972Z,101884.59
2023-10-10T08:28:07.579Z,101883.09
2023-10-10T08:30:34.749Z,101861.59
2023-10-10T08:33:02.924Z,101868.63
2023-10-10T08:35:31.318Z,101864.34
2023-10-10T08:37:58.351Z,101871.16
2023-10-10T08:40:31.711Z,101857.75
2023-10-10T08:42:58.480Z,101879.28
2023-10-10T08:45:26.617Z,101867.75
2023-10-10T08:48:04.156Z,101884.47
2023-10-10T08:50:34.897Z,101887.81
2023-10-10T08:53:01.612Z,101874.31
2023-10-10T08:55:29.234Z,101864.44
2023-10-10T08:57:56.746Z,101871.66
2023-10-10T09:00:28.164Z,101845.78
2023-10-10T09:02:56.341Z,101852.31
2023-10-10T09:05:25.386Z,101867.88
2023-10-10T09:07:54.244Z,101873.03
2023-10-10T09:10:29.444Z,101864.53
2023-10-10T09:12:56.843Z,101872.59
2023-10-10T09:15:24.891Z,101868.22
2023-10-10T09:17:56.983Z,101868.22
2023-10-10T09:20:31.591Z,101878.06
2023-10-10T09:23:17.135Z,101869.75
2023-10-10T09:25:45.386Z,101867.25
2023-10-10T09:28:16.865Z,101843.88
2023-10-10T09:31:13.859Z,101849.25
2023-10-10T09:33:46.767Z,101863.94
2023-10-10T09:36:20.722Z,101875.25
2023-10-10T09:38:55.749Z,101874.63
2023-10-10T09:41:32.411Z,101869.31
2023-10-10T09:44:24.401Z,101869.81
2023-10-10T09:47:10.262Z,101869.31
2023-10-10T09:49:41.720Z,101868.81
2023-10-10T09:52:32.230Z,101868.03
2023-10-10T09:55:27.094Z,101860.06
2023-10-10T09:58:06.837Z,101862.09
2023-10-10T10:00:43.518Z,101859.59
2023-10-10T10:03:30.370Z,101847.09
2023-10-10T10:06:29.818Z,101833.41
2023-10-10T10:09:33.574Z,101862.97
2023-10-10T10:12:20.458Z,101868.00
2023-10-10T10:15:21.049Z,101866.47
2023-10-10T10:18:20.588Z,101867.31
2023-10-10T10:21:05.590Z,101863.66
2023-10-10T10:23:35.088Z,101861.16
2023-10-10T10:26:12.110Z,101855.13
2023-10-10T10:28:42.856Z,101855.97
2023-10-10T10:31:28.813Z,101860.97
2023-10-10T10:34:11.357Z,101859.81
2023-10-10T10:36:55.776Z,101867.31
2023-10-10T10:39:26.516Z,101826.09
2023-10-10T10:41:57.264Z,101863.50
2023-10-10T10:44:54.980Z,101853.78
2023-10-10T10:47:40.080Z,101850.31
2023-10-10T10:50:18.735Z,101851.81
2023-10-10T10:52:57.132Z,101852.78
2023-10-10T10:55:30.447Z,101851.47
2023-10-10T10:58:07.468Z,101844.75
2023-10-10T11:01:01.580Z,101844.06
2023-10-10T11:03:36.449Z,101839.72
2023-10-10T11:06:07.937Z,101827.53
2023-10-10T11:11:31.892Z,101833.97
2023-10-10T11:14:05.053Z,101825.25
2023-10-10T11:16:38.461Z,101823.22
2023-10-10T11:19:20.415Z,101819.16
2023-10-10T11:21:54.826Z,101814.13
2023-10-10T11:24:26.880Z,101814.78
2023-10-10T11:27:16.533Z,101814.88
2023-10-10T11:29:46.116Z,101809.47
2023-10-10T11:32:14.953Z,101802.19
2023-10-10T11:34:45.010Z,101791.53
2023-10-10T11:37:14.939Z,101798.88
2023-10-10T11:39:59.218Z,101802.56
2023-10-10T11:42:29.581Z,101815.47
2023-10-10T11:45:03.273Z,101801.25
2023-10-10T11:47:30.022Z,101800.41
2023-10-10T11:50:06.524Z,101797.44
2023-10-10T11:52:36.324Z,101798.91
2023-10-10T11:55:08.868Z,101790.44
2023-10-10T11:57:35.889Z,101792.88
2023-10-10T12:00:26.331Z,101793.16
2023-10-10T12:02:56.597Z,101783.13
2023-10-10T12:05:28.927Z,101772.72
2023-10-10T12:07:59.487Z,101768.66
2023-10-10T12:10:40.942Z,101767.09
2023-10-10T12:13:10.824Z,101768.03
2023-10-10T12:15:46.213Z,101767.69
2023-10-10T12:18:12.910Z,101763.63
2023-10-10T12:20:43.633Z,101765.75
2023-10-10T12:23:10.514Z,101768.72
2023-10-10T12:25:42.203Z,101754.97
2023-10-10T12:28:11.158Z,101752.63
2023-10-10T12:30:41.685Z,101767.69
2023-10-10T12:33:09.765Z,101758.38
2023-10-10T12:35:36.921Z,101744.59
2023-10-10T12:38:03.477Z,101753.84
2023-10-10T12:40:34.762Z,101754.13
2023-10-10T12:43:04.911Z,101744.41
2023-10-10T12:45:34.314Z,101745.06
2023-10-10T12:48:03.847Z,101737.00
2023-10-10T12:50:30.910Z,101747.00
2023-10-10T12:53:09.231Z,101737.47
2023-10-10T12:55:37.783Z,101746.16
2023-10-10T12:58:16.201Z,101753.44
2023-10-10T13:00:51.115Z,101740.16
2023-10-10T13:03:29.980Z,101738.09
2023-10-10T13:06:00.151Z,101719.78
2023-10-10T13:08:40.154Z,101735.22
2023-10-10T13:11:15.969Z,101729.97
2023-10-10T13:13:46.818Z,101736.03
2023-10-10T13:16:26.513Z,101742.09
2023-10-10T13:18:54.530Z,101746.91
2023-10-10T13:21:21.348Z,101737.00
2023-10-10T13:23:49.001Z,101729.78
2023-10-10T13:26:17.631Z,101725.63
2023-10-10T13:28:47.910Z,101732.47
2023-10-10T13:31:19.143Z,101735.16
2023-10-10T13:33:46.480Z,101727.88
2023-10-10T13:36:16.190Z,101698.16
2023-10-10T13:38:51.672Z,101735.28
2023-10-10T13:41:20.282Z,101732.50
2023-10-10T13:43:48.291Z,101740.50
2023-10-10T13:46:22.220Z,101743.09
2023-10-10T13:48:49.070Z,101744.31
2023-10-10T13:51:16.597Z,101752.94
2023-10-10T13:53:46.035Z,101747.72
2023-10-10T13:56:17.996Z,101737.25
2023-10-10T13:58:53.360Z,101740.22
2023-10-10T14:01:31.116Z,101746.78
2023-10-10T14:04:05.881Z,101736.00
2023-10-10T14:06:46.928Z,101725.81
2023-10-10T14:09:26.588Z,101738.66
2023-10-10T14:11:58.366Z,101731.81
2023-10-10T14:14:25.156Z,101734.31
2023-10-10T14:16:52.318Z,101724.63
2023-10-10T14:19:19.310Z,101718.59
2023-10-10T14:21:48.694Z,101722.22
2023-10-10T14:24:15.712Z,101723.28
2023-10-10T14:26:44.807Z,101711.56
2023-10-10T14:29:15.219Z,101705.28
2023-10-10T14:31:46.561Z,101696.84
2023-10-10T14:34:21.233Z,101695.47
2023-10-10T14:36:51.933Z,101699.63
2023-10-10T14:39:37.702Z,101684.34
2023-10-10T14:42:04.820Z,101683.94
2023-10-10T14:44:32.770Z,101677.84
2023-10-10T14:46:59.547Z,101668.94
2023-10-10T14:49:32.849Z,101657.38
2023-10-10T14:52:07.601Z,101661.53
2023-10-10T14:54:49.940Z,101654.28
2023-10-10T14:57:25.562Z,101662.13
2023-10-10T14:59:56.837Z,101659.63
2023-10-10T15:02:27.458Z,101666.22
2023-10-10T15:04:55.736Z,101669.28
2023-10-10T15:07:22.217Z,101657.81
2023-10-10T15:09:48.674Z,101652.44
2023-10-10T15:12:15.159Z,101656.53
2023-10-10T15:14:44.027Z,101656.06
2023-10-10T15:17:11.294Z,101659.97
2023-10-10T15:19:37.892Z,101651.47
2023-10-10T15:22:04.640Z,101646.03
2023-10-10T15:24:34.166Z,101624.00
2023-10-10T15:27:01.342Z,101646.34
2023-10-10T15:29:28.250Z,101648.53
2023-10-10T15:31:57.291Z,101625.94
2023-10-10T15:34:24.723Z,101637.28
2023-10-10T15:36:51.197Z,101636.22
2023-10-10T15:39:18.437Z,101640.25
2023-10-10T15:41:45.970Z,101632.63
2023-10-10T15:44:13.832Z,101629.84
2023-10-10T15:46:44.015Z,101626.72
2023-10-10T15:49:25.210Z,101618.56
2023-10-10T15:52:05.572Z,101627.66
2023-10-10T15:54:35.302Z,101623.00
2023-10-10T15:57:05.348Z,101626.38
2023-10-10T15:59:31.900Z,101613.59
2023-10-10T16:01:59.540Z,101620.81
2023-10-10T16:04:27.463Z,101619.13
2023-10-10T16:06:53.971Z,101611.50
2023-10-10T16:09:21.660Z,101613.34
2023-10-10T16:11:54.620Z,101608.34
2023-10-10T16:14:21.684Z,101617.53
2023-10-10T16:16:49.039Z,101605.16
2023-10-10T16:19:21.870Z,101594.72
2023-10-10T16:21:49.627Z,101602.41
2023-10-10T16:24:16.161Z,101607.75
2023-10-10T16:26:43.955Z,101578.03
2023-10-10T16:29:12.341Z,101612.00
2023-10-10T16:31:44.387Z,101607.03
2023-10-10T16:34:12.253Z,101607.41
2023-10-10T16:36:39.205Z,101602.41
2023-10-10T16:39:12.132Z,101599.44
2023-10-10T16:41:39.293Z,101594.72
2023-10-10T16:44:05.961Z,101595.97
2023-10-10T16:46:33.146Z,101598.16
2023-10-10T16:49:00.252Z,101596.03
2023-10-10T16:51:33.271Z,101586.53
2023-10-10T16:54:00.359Z,101549.13
2023-10-10T16:56:27.397Z,101575.72
2023-10-10T16:58:53.889Z,101574.41
2023-10-10T17:01:24.094Z,101562.34
2023-10-10T17:03:55.548Z,101565.19
2023-10-10T17:06:24.039Z,101579.03
2023-10-10T17:08:54.363Z,101558.06
2023-10-10T17:11:24.230Z,101555.38
2023-10-10T17:13:52.243Z,101558.59
2023-10-10T17:16:26.953Z,101520.38
2023-10-10T17:18:54.698Z,101560.28
2023-10-10T17:21:26.001Z,101561.47
2023-10-10T17:23:56.155Z,101561.63
2023-10-10T17:26:23.190Z,101552.31
2023-10-10T17:28:51.239Z,101525.06
2023-10-10T17:31:24.136Z,101561.06
2023-10-10T17:33:55.423Z,101555.88
2023-10-10T17:36:23.923Z,101541.13
2023-10-10T17:38:53.576Z,101550.63
2023-10-10T17:41:20.628Z,101550.97
2023-10-10T17:43:47.134Z,101548.47
2023-10-10T17:46:21.459Z,101545.53
2023-10-10T17:48:55.610Z,101539.16
2023-10-10T17:51:24.998Z,101537.50
2023-10-10T17:53:53.201Z,101537.66
2023-10-10T17:56:24.288Z,101525.03
2023-10-10T17:58:51.534Z,101537.50
2023-10-10T18:01:21.249Z,101528.50
2023-10-10T18:03:54.386Z,101529.84
2023-10-10T18:06:22.826Z,101531.84
2023-10-10T18:08:50.868Z,101532.22
2023-10-10T18:11:17.550Z,101534.03
2023-10-10T18:13:45.062Z,101520.22
2023-10-10T18:16:11.616Z,101491.47
2023-10-10T18:18:39.665Z,101518.06
2023-10-10T18:21:08.930Z,101509.75
2023-10-10T18:23:36.284Z,101512.63
2023-10-10T18:26:10.658Z,101507.28
2023-10-10T18:28:37.101Z,101506.63
2023-10-10T18:31:03.595Z,101498.97
2023-10-10T18:33:30.338Z,101505.34
2023-10-10T18:35:56.944Z,101499.50
2023-10-10T18:38:23.382Z,101495.34
2023-10-10T18:40:49.834Z,101504.19
2023-10-10T18:43:16.319Z,101494.06
2023-10-10T18:45:42.760Z,101495.03
2023-10-10T18:48:12.031Z,101491.53
2023-10-10T18:50:40.123Z,101484.34
2023-10-10T18:53:06.872Z,101483.06
2023-10-10T18:55:33.386Z,101489.25
2023-10-10T18:58:01.559Z,101481.78
2023-10-10T19:00:29.846Z,101486.28
2023-10-10T19:02:58.066Z,101477.44
2023-10-10T19:05:27.516Z,101468.13
2023-10-10T19:07:56.923Z,101474.75
2023-10-10T19:10:25.616Z,101467.56
2023-10-10T19:12:53.523Z,101452.44
2023-10-10T19:15:20.947Z,101463.22
2023-10-10T19:17:49.164Z,101469.06
2023-10-10T19:20:19.307Z,101474.56
2023-10-10T19:22:49.433Z,101477.88
2023-10-10T19:25:20.179Z,101483.91
2023-10-10T19:27:50.078Z,101485.53
2023-10-10T19:30:19.641Z,101487.38
2023-10-10T19:32:51.017Z,101484.25
2023-10-10T19:35:20.851Z,101479.22
2023-10-10T19:37:48.632Z,101480.03
2023-10-10T19:40:20.119Z,101477.53
2023-10-10T19:42:46.762Z,101477.38
2023-10-10T19:45:24.610Z,101476.53
2023-10-10T19:48:06.627Z,101467.69
2023-10-10T19:50:43.394Z,101476.34
2023-10-10T19:53:11.346Z,101469.50
2023-10-10T19:55:39.038Z,101469.16
2023-10-10T19:58:10.880Z,101466.69
2023-10-10T20:00:40.349Z,101471.34
2023-10-10T20:03:07.960Z,101478.25
2023-10-10T20:05:38.146Z,101475.22
2023-10-10T20:08:06.505Z,101483.06
2023-10-10T20:10:33.195Z,101485.09
2023-10-10T20:13:00.467Z,101486.09
2023-10-10T20:15:30.292Z,101464.97
2023-10-10T20:18:01.634Z,101476.13
2023-10-10T20:20:28.477Z,101468.91
2023-10-10T20:22:58.091Z,101468.13
2023-10-10T20:25:25.089Z,101465.94
2023-10-10T20:27:51.938Z,101471.47
2023-10-10T20:30:20.233Z,101475.34
2023-10-10T20:32:47.898Z,101478.50
2023-10-10T20:35:18.241Z,101467.34
2023-10-10T20:37:46.399Z,101464.22
2023-10-10T20:40:19.913Z,101453.41
2023-10-10T20:42:47.876Z,101465.22
2023-10-10T20:45:18.758Z,101459.22
2023-10-10T20:47:46.939Z,101457.38
2023-10-10T20:50:15.420Z,101447.13
2023-10-10T20:52:42.923Z,101448.34
2023-10-10T20:55:14.348Z,101454.75
2023-10-10T20:57:41.070Z,101453.09
2023-10-10T21:00:12.824Z,101439.47
2023-10-10T21:02:43.446Z,101448.09
2023-10-10T21:05:10.192Z,101440.38
2023-10-10T21:07:39.319Z,101450.38
2023-10-10T21:10:10.550Z,101446.50
2023-10-10T21:12:38.574Z,101453.69
2023-10-10T21:15:06.213Z,101452.38
2023-10-10T21:17:34.038Z,101457.34
2023-10-10T21:20:05.842Z,101458.31
2023-10-10T21:22:32.262Z,101466.94
2023-10-10T21:25:01.117Z,101459.22
2023-10-10T21:27:27.612Z,101470.69
2023-10-10T21:29:54.556Z,101456.84
2023-10-10T21:32:22.395Z,101453.81
2023-10-10T21:34:49.005Z,101460.16
2023-10-10T21:37:16.578Z,101457.47
2023-10-10T21:39:43.036Z,101459.16
2023-10-10T21:42:15.843Z,101457.84
2023-10-10T21:44:42.593Z,101459.53
2023-10-10T21:47:09.663Z,101467.47
2023-10-10T21:49:38.416Z,101473.66
2023-10-10T21:52:06.981Z,101470.84
2023-10-10T21:54:33.841Z,101471.97
2023-10-10T21:57:00.571Z,101459.41
2023-10-10T21:59:27.173Z,101462.84
2023-10-10T22:01:53.668Z,101455.63
2023-10-10T22:04:20.779Z,101450.41
2023-10-10T22:06:48.144Z,101468.00
2023-10-10T22:09:18.331Z,101454.19
2023-10-10T22:11:47.809Z,101458.94
2023-10-10T22:14:14.907Z,101447.75
2023-10-10T22:16:45.796Z,101454.59
2023-10-10T22:19:12.751Z,101461.44
2023-10-10T22:21:40.418Z,101460.28
2023-10-10T22:24:07.792Z,101461.66
2023-10-10T22:26:34.982Z,101450.97
2023-10-10T22:29:02.134Z,101462.97
2023-10-10T22:31:32.436Z,101452.81
2023-10-10T22:33:59.889Z,101461.66
2023-10-10T22:36:28.798Z,101460.16
2023-10-10T22:38:55.398Z,101444.50
2023-10-10T22:41:21.952Z,101445.69
2023-10-10T22:43:49.651Z,101449.19
2023-10-10T22:46:16.198Z,101431.69
2023-10-10T22:48:44.297Z,101424.72
2023-10-10T22:51:13.912Z,101439.50
2023-10-10T22:53:40.962Z,101439.56
2023-10-10T22:56:13.898Z,101454.38
2023-10-10T22:58:43.737Z,101447.38
2023-10-10T23:01:15.899Z,101453.03
2023-10-10T23:03:44.365Z,101445.38
2023-10-10T23:06:13.325Z,101446.06
2023-10-10T23:08:40.789Z,101428.41
2023-10-10T23:11:07.750Z,101430.38
2023-10-10T23:13:35.585Z,101421.75
2023-10-10T23:16:02.077Z,101418.22
2023-10-10T23:18:28.641Z,101413.25
2023-10-10T23:20:56.550Z,101423.91
2023-10-10T23:23:23.116Z,101428.09
2023-10-10T23:25:49.621Z,101413.41
2023-10-10T23:28:16.281Z,101411.13
2023-10-10T23:30:43.361Z,101418.44
2023-10-10T23:33:14.257Z,101428.75
2023-10-10T23:35:41.354Z,101428.75
2023-10-10T23:38:08.004Z,101411.59
2023-10-10T23:40:40.984Z,101401.13
2023-10-10T23:43:22.487Z,101406.59
2023-10-10T23:45:57.872Z,101415.75
2023-10-10T23:48:31.402Z,101423.09
2023-10-10T23:55:01.948Z,101407.81
2023-10-10T23:57:29.476Z,101417.44
2023-10-10T23:59:55.951Z,101416.63
